TUI433 EDDB-EETN
Flight info
| Callsign | TUI433 |
|---|---|
| Flight time | 1h 26m |
| Altitude | 35000 |
| Route | GERGA4B GERGA M725 RENKI L132 DEMUR N746 GORPI DCT ANFEV DCT DIPEB DCT ETHUV DCT ADBIB DCT SULUN |
| Aircraft | B738/M-SDE2E3FGHIRWXY/LB1 |
Departure
| Time | 2026-05-05 18:13 |
|---|---|
| Airport | Berlin Brandenburg Airport (EDDB) |
Arrival
| Time | 2026-05-05 19:39 |
|---|---|
| Airport | Lennart Meri Tallinn Airport (EETN) |
| Time | Latitude | Longitude | Altitude | Speed | Heading |
|---|---|---|---|---|---|
| 2026-05-05 17:45 | 52.36248 | 13.50678 | 139 ft | 0 kts | 68° |
| 2026-05-05 17:54 | 52.36245 | 13.50666 | 139 ft | 2 kts | 68° |
| 2026-05-05 17:55 | 52.36239 | 13.50643 | 139 ft | 2 kts | 68° |
| 2026-05-05 17:55 | 52.36234 | 13.50620 | 139 ft | 2 kts | 68° |
| 2026-05-05 17:55 | 52.36229 | 13.50597 | 139 ft | 2 kts | 70° |
| 2026-05-05 17:55 | 52.36227 | 13.50573 | 139 ft | 2 kts | 99° |
| 2026-05-05 17:56 | 52.36232 | 13.50550 | 139 ft | 2 kts | 121° |
| 2026-05-05 17:56 | 52.36241 | 13.50531 | 139 ft | 2 kts | 143° |
| 2026-05-05 17:56 | 52.36249 | 13.50523 | 139 ft | 0 kts | 157° |
| 2026-05-05 17:56 | 52.36256 | 13.50520 | 139 ft | 0 kts | 159° |
| 2026-05-05 17:59 | 52.36255 | 13.50520 | 139 ft | 0 kts | 159° |
| 2026-05-05 17:59 | 52.36233 | 13.50533 | 139 ft | 7 kts | 159° |
| 2026-05-05 18:00 | 52.36189 | 13.50560 | 139 ft | 6 kts | 159° |
| 2026-05-05 18:00 | 52.36149 | 13.50586 | 139 ft | 6 kts | 159° |
| 2026-05-05 18:00 | 52.36108 | 13.50611 | 139 ft | 5 kts | 159° |
| 2026-05-05 18:00 | 52.36068 | 13.50636 | 139 ft | 7 kts | 159° |
| 2026-05-05 18:01 | 52.36000 | 13.50678 | 139 ft | 12 kts | 158° |
| 2026-05-05 18:01 | 52.35917 | 13.50716 | 139 ft | 11 kts | 195° |
| 2026-05-05 18:01 | 52.35856 | 13.50650 | 139 ft | 10 kts | 201° |
| 2026-05-05 18:01 | 52.35791 | 13.50626 | 139 ft | 10 kts | 211° |
| 2026-05-05 18:02 | 52.35734 | 13.50455 | 142 ft | 22 kts | 249° |
| 2026-05-05 18:02 | 52.35671 | 13.50183 | 142 ft | 28 kts | 246° |
| 2026-05-05 18:02 | 52.35599 | 13.49884 | 146 ft | 27 kts | 249° |
| 2026-05-05 18:02 | 52.35532 | 13.49598 | 148 ft | 27 kts | 248° |
| 2026-05-05 18:03 | 52.35460 | 13.49295 | 146 ft | 31 kts | 248° |
| 2026-05-05 18:03 | 52.35381 | 13.48954 | 146 ft | 30 kts | 248° |
| 2026-05-05 18:03 | 52.35308 | 13.48664 | 146 ft | 24 kts | 247° |
| 2026-05-05 18:03 | 52.35263 | 13.48498 | 146 ft | 10 kts | 223° |
| 2026-05-05 18:04 | 52.35202 | 13.48492 | 146 ft | 8 kts | 157° |
| 2026-05-05 18:04 | 52.35168 | 13.48516 | 146 ft | 1 kts | 157° |
| 2026-05-05 18:04 | 52.35156 | 13.48524 | 146 ft | 3 kts | 154° |
| 2026-05-05 18:04 | 52.35127 | 13.48552 | 146 ft | 4 kts | 142° |
| 2026-05-05 18:05 | 52.35116 | 13.48570 | 146 ft | 0 kts | 121° |
| 2026-05-05 18:08 | 52.35112 | 13.48585 | 146 ft | 4 kts | 111° |
| 2026-05-05 18:08 | 52.35101 | 13.48653 | 146 ft | 0 kts | 98° |
| 2026-05-05 18:12 | 52.35094 | 13.48732 | 146 ft | 17 kts | 97° |
| 2026-05-05 18:12 | 52.35059 | 13.48964 | 144 ft | 21 kts | 102° |
| 2026-05-05 18:12 | 52.35101 | 13.49184 | 144 ft | 21 kts | 68° |
| 2026-05-05 18:12 | 52.35214 | 13.49656 | 145 ft | 80 kts | 68° |
| 2026-05-05 18:13 | 52.35518 | 13.50937 | 142 ft | 156 kts | 68° |
| 2026-05-05 18:13 | 52.35920 | 13.52649 | 884 ft | 165 kts | 68° |
| 2026-05-05 18:13 | 52.36308 | 13.54370 | 1846 ft | 167 kts | 67° |
| 2026-05-05 18:13 | 52.36458 | 13.56297 | 2504 ft | 191 kts | 101° |
| 2026-05-05 18:14 | 52.35698 | 13.58156 | 3266 ft | 212 kts | 140° |
| 2026-05-05 18:14 | 52.34300 | 13.59088 | 4126 ft | 228 kts | 173° |
| 2026-05-05 18:14 | 52.32780 | 13.59254 | 5290 ft | 221 kts | 166° |
| 2026-05-05 18:14 | 52.31365 | 13.60278 | 5741 ft | 248 kts | 145° |
| 2026-05-05 18:15 | 52.30049 | 13.62475 | 5598 ft | 289 kts | 109° |
| 2026-05-05 18:15 | 52.29792 | 13.65410 | 6226 ft | 247 kts | 87° |
| 2026-05-05 18:15 | 52.30144 | 13.68111 | 6061 ft | 235 kts | 66° |
| 2026-05-05 18:15 | 52.30940 | 13.70244 | 6190 ft | 213 kts | 45° |
| 2026-05-05 18:16 | 52.32048 | 13.71810 | 6052 ft | 217 kts | 45° |
| 2026-05-05 18:16 | 52.32909 | 13.73994 | 6338 ft | 239 kts | 72° |
| 2026-05-05 18:16 | 52.33297 | 13.76696 | 6783 ft | 254 kts | 72° |
| 2026-05-05 18:16 | 52.34235 | 13.79167 | 7267 ft | 266 kts | 40° |
| 2026-05-05 18:17 | 52.35920 | 13.80483 | 7756 ft | 278 kts | 8° |
| 2026-05-05 18:17 | 52.37853 | 13.80710 | 8449 ft | 283 kts | 1° |
| 2026-05-05 18:17 | 52.39813 | 13.81012 | 9168 ft | 288 kts | 9° |
| 2026-05-05 18:17 | 52.41780 | 13.81804 | 9859 ft | 295 kts | 17° |
| 2026-05-05 18:18 | 52.43721 | 13.82974 | 10409 ft | 306 kts | 21° |
| 2026-05-05 18:18 | 52.45715 | 13.84347 | 10830 ft | 322 kts | 21° |
| 2026-05-05 18:18 | 52.47821 | 13.85834 | 11216 ft | 337 kts | 22° |
| 2026-05-05 18:18 | 52.50045 | 13.87389 | 11567 ft | 353 kts | 22° |
| 2026-05-05 18:19 | 52.52317 | 13.88956 | 12190 ft | 359 kts | 21° |
| 2026-05-05 18:19 | 52.54640 | 13.90546 | 12849 ft | 365 kts | 21° |
| 2026-05-05 18:19 | 52.56846 | 13.92050 | 13456 ft | 370 kts | 21° |
| 2026-05-05 18:19 | 52.59230 | 13.93671 | 14150 ft | 373 kts | 21° |
| 2026-05-05 18:20 | 52.61623 | 13.95298 | 14755 ft | 378 kts | 21° |
| 2026-05-05 18:20 | 52.64046 | 13.96949 | 15395 ft | 383 kts | 21° |
| 2026-05-05 18:20 | 52.66526 | 13.98641 | 16050 ft | 386 kts | 21° |
| 2026-05-05 18:20 | 52.68982 | 14.00318 | 16655 ft | 389 kts | 21° |
| 2026-05-05 18:21 | 52.71509 | 14.02048 | 17261 ft | 393 kts | 21° |
| 2026-05-05 18:21 | 52.74043 | 14.03787 | 17844 ft | 397 kts | 21° |
| 2026-05-05 18:21 | 52.76572 | 14.05526 | 18440 ft | 401 kts | 21° |
| 2026-05-05 18:21 | 52.79167 | 14.07312 | 18982 ft | 405 kts | 21° |
| 2026-05-05 18:22 | 52.81782 | 14.09110 | 19503 ft | 410 kts | 21° |
| 2026-05-05 18:22 | 52.84407 | 14.10917 | 20026 ft | 414 kts | 20° |
| 2026-05-05 18:22 | 52.87062 | 14.12746 | 20562 ft | 418 kts | 20° |
| 2026-05-05 18:22 | 52.89742 | 14.14594 | 21028 ft | 423 kts | 20° |
| 2026-05-05 18:23 | 52.92468 | 14.16475 | 21555 ft | 426 kts | 20° |
| 2026-05-05 18:23 | 52.95181 | 14.18352 | 22032 ft | 430 kts | 20° |
| 2026-05-05 18:23 | 52.97945 | 14.20265 | 22509 ft | 433 kts | 20° |
| 2026-05-05 18:23 | 53.00729 | 14.22195 | 22970 ft | 437 kts | 20° |
| 2026-05-05 18:24 | 53.03562 | 14.24162 | 23421 ft | 441 kts | 20° |
| 2026-05-05 18:24 | 53.06382 | 14.26121 | 23904 ft | 444 kts | 19° |
| 2026-05-05 18:24 | 53.09207 | 14.28087 | 24322 ft | 448 kts | 19° |
| 2026-05-05 18:24 | 53.12113 | 14.30113 | 24783 ft | 451 kts | 19° |
| 2026-05-05 18:25 | 53.15007 | 14.32133 | 25182 ft | 455 kts | 19° |
| 2026-05-05 18:25 | 53.16949 | 14.33491 | 25467 ft | 457 kts | 19° |
| 2026-05-05 18:25 | 53.20845 | 14.36218 | 26062 ft | 460 kts | 19° |
| 2026-05-05 18:25 | 53.23783 | 14.38280 | 26495 ft | 463 kts | 19° |
| 2026-05-05 18:26 | 53.26783 | 14.40388 | 26854 ft | 467 kts | 19° |
| 2026-05-05 18:26 | 53.29763 | 14.42497 | 27271 ft | 470 kts | 19° |
| 2026-05-05 18:26 | 53.32764 | 14.44660 | 27683 ft | 472 kts | 19° |
| 2026-05-05 18:26 | 53.35778 | 14.46861 | 28071 ft | 475 kts | 19° |
| 2026-05-05 18:27 | 53.38780 | 14.49067 | 28454 ft | 478 kts | 19° |
| 2026-05-05 18:27 | 53.41810 | 14.51302 | 28837 ft | 480 kts | 19° |
| 2026-05-05 18:27 | 53.44902 | 14.53586 | 29165 ft | 484 kts | 19° |
| 2026-05-05 18:27 | 53.47958 | 14.55844 | 29518 ft | 487 kts | 19° |
| 2026-05-05 18:28 | 53.54164 | 14.60438 | 30469 ft | 485 kts | 19° |
| 2026-05-05 18:28 | 53.57244 | 14.62723 | 30937 ft | 485 kts | 19° |
| 2026-05-05 18:28 | 53.60312 | 14.65000 | 31423 ft | 484 kts | 18° |
| 2026-05-05 18:29 | 53.63380 | 14.67281 | 31886 ft | 482 kts | 19° |
| 2026-05-05 18:29 | 53.66458 | 14.69571 | 32299 ft | 482 kts | 19° |
| 2026-05-05 18:29 | 53.69528 | 14.71858 | 32641 ft | 482 kts | 19° |
| 2026-05-05 18:29 | 53.72586 | 14.74136 | 32996 ft | 482 kts | 19° |
| 2026-05-05 18:30 | 53.75638 | 14.76413 | 33452 ft | 480 kts | 19° |
| 2026-05-05 18:30 | 53.78656 | 14.78669 | 33921 ft | 477 kts | 18° |
| 2026-05-05 18:30 | 53.81703 | 14.80951 | 34319 ft | 475 kts | 18° |
| 2026-05-05 18:30 | 53.84699 | 14.83196 | 34647 ft | 475 kts | 18° |
| 2026-05-05 18:31 | 53.87721 | 14.85463 | 34861 ft | 476 kts | 18° |
| 2026-05-05 18:31 | 53.90720 | 14.87713 | 34864 ft | 478 kts | 18° |
| 2026-05-05 18:31 | 53.96749 | 14.92255 | 34865 ft | 475 kts | 18° |
| 2026-05-05 18:32 | 54.02788 | 14.96821 | 34859 ft | 477 kts | 18° |
| 2026-05-05 18:32 | 54.08821 | 15.01393 | 34858 ft | 476 kts | 18° |
| 2026-05-05 18:33 | 54.14865 | 15.05967 | 34870 ft | 476 kts | 18° |
| 2026-05-05 18:33 | 54.20905 | 15.10540 | 34866 ft | 476 kts | 18° |
| 2026-05-05 18:34 | 54.26927 | 15.15114 | 34861 ft | 476 kts | 18° |
| 2026-05-05 18:34 | 54.32974 | 15.19726 | 34866 ft | 477 kts | 18° |
| 2026-05-05 18:35 | 54.38970 | 15.24317 | 34869 ft | 475 kts | 18° |
| 2026-05-05 18:35 | 54.45005 | 15.28962 | 35059 ft | 477 kts | 18° |
| 2026-05-05 18:36 | 54.48028 | 15.31297 | 35241 ft | 478 kts | 18° |
| 2026-05-05 18:36 | 54.51059 | 15.33645 | 35527 ft | 475 kts | 18° |
| 2026-05-05 18:36 | 54.54038 | 15.35961 | 35763 ft | 474 kts | 18° |
| 2026-05-05 18:36 | 54.57048 | 15.38302 | 35991 ft | 473 kts | 18° |
| 2026-05-05 18:37 | 54.60037 | 15.40629 | 36140 ft | 473 kts | 19° |
| 2026-05-05 18:37 | 54.63006 | 15.42943 | 36293 ft | 473 kts | 19° |
| 2026-05-05 18:37 | 54.66015 | 15.45293 | 36487 ft | 471 kts | 19° |
| 2026-05-05 18:37 | 54.68989 | 15.47621 | 36674 ft | 470 kts | 19° |
| 2026-05-05 18:38 | 54.71973 | 15.49958 | 36815 ft | 471 kts | 19° |
| 2026-05-05 18:38 | 54.74958 | 15.52299 | 36879 ft | 472 kts | 19° |
| 2026-05-05 18:38 | 54.80938 | 15.56998 | 36873 ft | 472 kts | 19° |
| 2026-05-05 18:39 | 54.86875 | 15.61694 | 36868 ft | 470 kts | 20° |
| 2026-05-05 18:39 | 54.92550 | 15.67434 | 36881 ft | 479 kts | 34° |
| 2026-05-05 18:40 | 54.97549 | 15.75223 | 36869 ft | 485 kts | 42° |
| 2026-05-05 18:40 | 55.02214 | 15.83638 | 36889 ft | 483 kts | 43° |
| 2026-05-05 18:41 | 55.06800 | 15.92110 | 36880 ft | 482 kts | 43° |
| 2026-05-05 18:41 | 55.11411 | 16.00571 | 36876 ft | 483 kts | 43° |
| 2026-05-05 18:42 | 55.16065 | 16.09043 | 36877 ft | 483 kts | 43° |
| 2026-05-05 18:42 | 55.20725 | 16.17499 | 37073 ft | 484 kts | 43° |
| 2026-05-05 18:43 | 55.23082 | 16.21790 | 36933 ft | 491 kts | 43° |
| 2026-05-05 18:43 | 55.25433 | 16.26076 | 36874 ft | 494 kts | 43° |
| 2026-05-05 18:43 | 55.30197 | 16.34748 | 36872 ft | 499 kts | 43° |
| 2026-05-05 18:44 | 55.35037 | 16.43578 | 36876 ft | 502 kts | 43° |
| 2026-05-05 18:44 | 55.39905 | 16.52500 | 36880 ft | 505 kts | 43° |
| 2026-05-05 18:45 | 55.44718 | 16.61361 | 36875 ft | 507 kts | 43° |
| 2026-05-05 18:45 | 55.49585 | 16.70361 | 36867 ft | 508 kts | 44° |
| 2026-05-05 18:46 | 55.54448 | 16.79390 | 36860 ft | 508 kts | 44° |
| 2026-05-05 18:46 | 55.59308 | 16.88446 | 36862 ft | 508 kts | 44° |
| 2026-05-05 18:47 | 55.64159 | 16.97522 | 36856 ft | 508 kts | 44° |
| 2026-05-05 18:47 | 55.68982 | 17.06573 | 36860 ft | 508 kts | 44° |
| 2026-05-05 18:48 | 55.73792 | 17.15639 | 36860 ft | 497 kts | 44° |
| 2026-05-05 18:48 | 55.78464 | 17.24479 | 36866 ft | 493 kts | 44° |
| 2026-05-05 18:49 | 55.83190 | 17.33217 | 36873 ft | 494 kts | 42° |
| 2026-05-05 18:49 | 55.88018 | 17.41952 | 36874 ft | 494 kts | 42° |
| 2026-05-05 18:50 | 55.92827 | 17.50665 | 36871 ft | 493 kts | 42° |
| 2026-05-05 18:50 | 55.97605 | 17.59381 | 36876 ft | 494 kts | 43° |
| 2026-05-05 18:51 | 56.02399 | 17.68186 | 36877 ft | 493 kts | 43° |
| 2026-05-05 18:51 | 56.07167 | 17.76992 | 36882 ft | 495 kts | 43° |
| 2026-05-05 18:52 | 56.11916 | 17.85800 | 36883 ft | 494 kts | 43° |
| 2026-05-05 18:52 | 56.16685 | 17.94680 | 36879 ft | 494 kts | 43° |
| 2026-05-05 18:53 | 56.21409 | 18.03645 | 36877 ft | 496 kts | 45° |
| 2026-05-05 18:53 | 56.26008 | 18.12813 | 36883 ft | 497 kts | 45° |
| 2026-05-05 18:54 | 56.30591 | 18.22098 | 36879 ft | 498 kts | 45° |
| 2026-05-05 18:54 | 56.35171 | 18.31394 | 36881 ft | 498 kts | 45° |
| 2026-05-05 18:55 | 56.39773 | 18.40730 | 36881 ft | 499 kts | 45° |
| 2026-05-05 18:55 | 56.44366 | 18.50058 | 36887 ft | 499 kts | 45° |
| 2026-05-05 18:56 | 56.48976 | 18.59442 | 36882 ft | 500 kts | 45° |
| 2026-05-05 18:56 | 56.53567 | 18.68822 | 36879 ft | 501 kts | 46° |
| 2026-05-05 18:57 | 56.58198 | 18.78319 | 36884 ft | 502 kts | 46° |
| 2026-05-05 18:57 | 56.62786 | 18.87768 | 36879 ft | 501 kts | 46° |
| 2026-05-05 18:58 | 56.67373 | 18.97255 | 36883 ft | 499 kts | 46° |
| 2026-05-05 18:58 | 56.71914 | 19.06679 | 36894 ft | 501 kts | 46° |
| 2026-05-05 18:59 | 56.76469 | 19.16175 | 36906 ft | 500 kts | 46° |
| 2026-05-05 18:59 | 56.81035 | 19.25730 | 36908 ft | 500 kts | 46° |
| 2026-05-05 19:00 | 56.85567 | 19.35259 | 36905 ft | 500 kts | 46° |
| 2026-05-05 19:00 | 56.90120 | 19.44865 | 36906 ft | 500 kts | 46° |
| 2026-05-05 19:01 | 56.94664 | 19.54485 | 36902 ft | 500 kts | 46° |
| 2026-05-05 19:01 | 56.99194 | 19.64117 | 36905 ft | 500 kts | 46° |
| 2026-05-05 19:02 | 57.03737 | 19.73817 | 36906 ft | 500 kts | 47° |
| 2026-05-05 19:02 | 57.08257 | 19.83505 | 36904 ft | 504 kts | 47° |
| 2026-05-05 19:03 | 57.12817 | 19.93325 | 36899 ft | 507 kts | 47° |
| 2026-05-05 19:03 | 57.17378 | 20.03190 | 36901 ft | 509 kts | 47° |
| 2026-05-05 19:04 | 57.21967 | 20.13150 | 36898 ft | 511 kts | 47° |
| 2026-05-05 19:04 | 57.26543 | 20.23121 | 36903 ft | 512 kts | 47° |
| 2026-05-05 19:05 | 57.31131 | 20.33160 | 36891 ft | 513 kts | 47° |
| 2026-05-05 19:05 | 57.35715 | 20.43236 | 36892 ft | 514 kts | 47° |
| 2026-05-05 19:06 | 57.40305 | 20.53371 | 36892 ft | 514 kts | 47° |
| 2026-05-05 19:06 | 57.44906 | 20.63574 | 36894 ft | 515 kts | 47° |
| 2026-05-05 19:07 | 57.49485 | 20.73770 | 36900 ft | 515 kts | 48° |
| 2026-05-05 19:07 | 57.54048 | 20.83976 | 36892 ft | 516 kts | 48° |
| 2026-05-05 19:08 | 57.58597 | 20.94190 | 36887 ft | 516 kts | 48° |
| 2026-05-05 19:08 | 57.63168 | 21.04499 | 36889 ft | 517 kts | 48° |
| 2026-05-05 19:09 | 57.67725 | 21.14821 | 36881 ft | 518 kts | 48° |
| 2026-05-05 19:09 | 57.72303 | 21.25239 | 36884 ft | 518 kts | 48° |
| 2026-05-05 19:10 | 57.76855 | 21.35640 | 36887 ft | 518 kts | 48° |
| 2026-05-05 19:10 | 57.81393 | 21.46058 | 36889 ft | 518 kts | 48° |
| 2026-05-05 19:11 | 57.85932 | 21.56524 | 36886 ft | 519 kts | 48° |
| 2026-05-05 19:11 | 57.90457 | 21.67002 | 36884 ft | 519 kts | 49° |
| 2026-05-05 19:12 | 57.95015 | 21.77602 | 36888 ft | 519 kts | 49° |
| 2026-05-05 19:12 | 57.99516 | 21.88120 | 36727 ft | 513 kts | 49° |
| 2026-05-05 19:13 | 58.01723 | 21.93302 | 36486 ft | 502 kts | 49° |
| 2026-05-05 19:13 | 58.03866 | 21.98346 | 36258 ft | 493 kts | 49° |
| 2026-05-05 19:13 | 58.05984 | 22.03342 | 36006 ft | 486 kts | 49° |
| 2026-05-05 19:13 | 58.08093 | 22.08317 | 35727 ft | 491 kts | 48° |
| 2026-05-05 19:14 | 58.12469 | 22.18404 | 35507 ft | 507 kts | 46° |
| 2026-05-05 19:14 | 58.14811 | 22.23520 | 35265 ft | 519 kts | 45° |
| 2026-05-05 19:14 | 58.17204 | 22.28662 | 35027 ft | 522 kts | 45° |
| 2026-05-05 19:15 | 58.19527 | 22.33814 | 34920 ft | 511 kts | 47° |
| 2026-05-05 19:15 | 58.21740 | 22.38977 | 34417 ft | 510 kts | 48° |
| 2026-05-05 19:15 | 58.23940 | 22.44295 | 33866 ft | 507 kts | 49° |
| 2026-05-05 19:15 | 58.26088 | 22.49573 | 33191 ft | 509 kts | 49° |
| 2026-05-05 19:16 | 58.28260 | 22.54943 | 32700 ft | 519 kts | 49° |
| 2026-05-05 19:16 | 58.30485 | 22.60444 | 32194 ft | 523 kts | 49° |
| 2026-05-05 19:16 | 58.32681 | 22.65874 | 31689 ft | 521 kts | 50° |
| 2026-05-05 19:16 | 58.34896 | 22.71345 | 31186 ft | 516 kts | 50° |
| 2026-05-05 19:17 | 58.37043 | 22.76646 | 30694 ft | 511 kts | 50° |
| 2026-05-05 19:17 | 58.39205 | 22.81979 | 30152 ft | 507 kts | 50° |
| 2026-05-05 19:17 | 58.41346 | 22.87260 | 29617 ft | 505 kts | 50° |
| 2026-05-05 19:17 | 58.43476 | 22.92514 | 29080 ft | 503 kts | 50° |
| 2026-05-05 19:18 | 58.45610 | 22.97787 | 28884 ft | 497 kts | 50° |
| 2026-05-05 19:18 | 58.47702 | 23.02960 | 28886 ft | 501 kts | 50° |
| 2026-05-05 19:18 | 58.51967 | 23.13531 | 28798 ft | 505 kts | 50° |
| 2026-05-05 19:19 | 58.54117 | 23.18881 | 28308 ft | 505 kts | 50° |
| 2026-05-05 19:19 | 58.56237 | 23.24173 | 27818 ft | 499 kts | 50° |
| 2026-05-05 19:19 | 58.58308 | 23.29360 | 27341 ft | 494 kts | 50° |
| 2026-05-05 19:19 | 58.60392 | 23.34591 | 26855 ft | 490 kts | 50° |
| 2026-05-05 19:20 | 58.62431 | 23.39720 | 26384 ft | 488 kts | 50° |
| 2026-05-05 19:20 | 58.64459 | 23.44918 | 25874 ft | 484 kts | 50° |
| 2026-05-05 19:20 | 58.66422 | 23.50059 | 25295 ft | 482 kts | 51° |
| 2026-05-05 19:20 | 58.68372 | 23.55280 | 24752 ft | 479 kts | 51° |
| 2026-05-05 19:21 | 58.70252 | 23.60426 | 24232 ft | 475 kts | 52° |
| 2026-05-05 19:21 | 58.72125 | 23.65659 | 23647 ft | 473 kts | 54° |
| 2026-05-05 19:21 | 58.73938 | 23.70828 | 23043 ft | 461 kts | 54° |
| 2026-05-05 19:21 | 58.75675 | 23.75896 | 22485 ft | 449 kts | 55° |
| 2026-05-05 19:22 | 58.77326 | 23.80816 | 21925 ft | 438 kts | 55° |
| 2026-05-05 19:22 | 58.78942 | 23.85738 | 21361 ft | 428 kts | 56° |
| 2026-05-05 19:22 | 58.80470 | 23.90513 | 20805 ft | 419 kts | 57° |
| 2026-05-05 19:22 | 58.81957 | 23.95298 | 20235 ft | 411 kts | 57° |
| 2026-05-05 19:23 | 58.83377 | 24.00003 | 19657 ft | 403 kts | 58° |
| 2026-05-05 19:23 | 58.84726 | 24.04628 | 19057 ft | 397 kts | 59° |
| 2026-05-05 19:23 | 58.86052 | 24.09296 | 18434 ft | 392 kts | 59° |
| 2026-05-05 19:23 | 58.87569 | 24.13488 | 17816 ft | 381 kts | 39° |
| 2026-05-05 19:24 | 58.89576 | 24.16631 | 17217 ft | 368 kts | 27° |
| 2026-05-05 19:24 | 58.91698 | 24.19311 | 16611 ft | 363 kts | 26° |
| 2026-05-05 19:24 | 58.93759 | 24.22138 | 15987 ft | 363 kts | 33° |
| 2026-05-05 19:24 | 58.95623 | 24.25343 | 15365 ft | 363 kts | 40° |
| 2026-05-05 19:25 | 58.97306 | 24.28952 | 14778 ft | 362 kts | 47° |
| 2026-05-05 19:25 | 58.98868 | 24.32815 | 14243 ft | 364 kts | 50° |
| 2026-05-05 19:25 | 59.00362 | 24.36768 | 13756 ft | 364 kts | 51° |
| 2026-05-05 19:25 | 59.01840 | 24.40766 | 13283 ft | 363 kts | 51° |
| 2026-05-05 19:26 | 59.03319 | 24.44760 | 12803 ft | 362 kts | 51° |
| 2026-05-05 19:26 | 59.04772 | 24.48654 | 12333 ft | 361 kts | 50° |
| 2026-05-05 19:26 | 59.06248 | 24.52582 | 11815 ft | 357 kts | 50° |
| 2026-05-05 19:26 | 59.07694 | 24.56420 | 11268 ft | 349 kts | 50° |
| 2026-05-05 19:27 | 59.09103 | 24.60154 | 10696 ft | 343 kts | 50° |
| 2026-05-05 19:27 | 59.10518 | 24.63900 | 10101 ft | 337 kts | 50° |
| 2026-05-05 19:27 | 59.11877 | 24.67503 | 9517 ft | 331 kts | 51° |
| 2026-05-05 19:27 | 59.13231 | 24.71102 | 8919 ft | 325 kts | 51° |
| 2026-05-05 19:28 | 59.14546 | 24.74601 | 8319 ft | 319 kts | 51° |
| 2026-05-05 19:28 | 59.15834 | 24.78033 | 7808 ft | 311 kts | 51° |
| 2026-05-05 19:28 | 59.17088 | 24.81381 | 7272 ft | 303 kts | 50° |
| 2026-05-05 19:28 | 59.18314 | 24.84661 | 6752 ft | 295 kts | 51° |
| 2026-05-05 19:29 | 59.19492 | 24.87813 | 6241 ft | 289 kts | 50° |
| 2026-05-05 19:29 | 59.20663 | 24.90951 | 5709 ft | 283 kts | 50° |
| 2026-05-05 19:29 | 59.21803 | 24.94007 | 5193 ft | 278 kts | 50° |
| 2026-05-05 19:29 | 59.22922 | 24.97013 | 4968 ft | 268 kts | 50° |
| 2026-05-05 19:30 | 59.24004 | 24.99922 | 4993 ft | 273 kts | 50° |
| 2026-05-05 19:30 | 59.25131 | 25.02947 | 4975 ft | 271 kts | 50° |
| 2026-05-05 19:30 | 59.26211 | 25.05864 | 4765 ft | 263 kts | 50° |
| 2026-05-05 19:30 | 59.27283 | 25.08758 | 4120 ft | 267 kts | 50° |
| 2026-05-05 19:31 | 59.28381 | 25.11718 | 3474 ft | 276 kts | 50° |
| 2026-05-05 19:31 | 59.29503 | 25.14745 | 2898 ft | 277 kts | 50° |
| 2026-05-05 19:31 | 59.30622 | 25.17788 | 2377 ft | 271 kts | 50° |
| 2026-05-05 19:31 | 59.31717 | 25.20652 | 2161 ft | 252 kts | 42° |
| 2026-05-05 19:32 | 59.33048 | 25.22456 | 2175 ft | 220 kts | 12° |
| 2026-05-05 19:32 | 59.34478 | 25.22986 | 2183 ft | 207 kts | 1° |
| 2026-05-05 19:32 | 59.35912 | 25.23232 | 2176 ft | 206 kts | 360° |
| 2026-05-05 19:32 | 59.37339 | 25.23461 | 2177 ft | 205 kts | 360° |
| 2026-05-05 19:33 | 59.38718 | 25.23697 | 2167 ft | 191 kts | 0° |
| 2026-05-05 19:33 | 59.39997 | 25.23826 | 2175 ft | 182 kts | 346° |
| 2026-05-05 19:33 | 59.41118 | 25.22786 | 2181 ft | 179 kts | 310° |
| 2026-05-05 19:33 | 59.41621 | 25.20638 | 2181 ft | 179 kts | 274° |
| 2026-05-05 19:34 | 59.41371 | 25.18203 | 2187 ft | 184 kts | 257° |
| 2026-05-05 19:34 | 59.41167 | 25.15787 | 2172 ft | 180 kts | 272° |
| 2026-05-05 19:34 | 59.41181 | 25.13323 | 2175 ft | 180 kts | 275° |
| 2026-05-05 19:35 | 59.41215 | 25.08402 | 2178 ft | 180 kts | 274° |
| 2026-05-05 19:35 | 59.41227 | 25.05951 | 2159 ft | 181 kts | 274° |
| 2026-05-05 19:35 | 59.41242 | 25.03485 | 1918 ft | 180 kts | 274° |
| 2026-05-05 19:35 | 59.41253 | 25.01113 | 1668 ft | 174 kts | 273° |
| 2026-05-05 19:36 | 59.41263 | 24.98771 | 1426 ft | 168 kts | 273° |
| 2026-05-05 19:36 | 59.41273 | 24.96531 | 1210 ft | 159 kts | 272° |
| 2026-05-05 19:36 | 59.41282 | 24.94467 | 977 ft | 149 kts | 272° |
| 2026-05-05 19:36 | 59.41291 | 24.92431 | 802 ft | 145 kts | 271° |
| 2026-05-05 19:37 | 59.41297 | 24.90555 | 610 ft | 130 kts | 271° |
| 2026-05-05 19:37 | 59.41304 | 24.88849 | 451 ft | 123 kts | 272° |
| 2026-05-05 19:37 | 59.41322 | 24.87171 | 226 ft | 121 kts | 270° |
| 2026-05-05 19:37 | 59.41328 | 24.85619 | 148 ft | 92 kts | 270° |
| 2026-05-05 19:38 | 59.41325 | 24.84659 | 151 ft | 65 kts | 269° |
| 2026-05-05 19:38 | 59.41318 | 24.83785 | 151 ft | 69 kts | 270° |
| 2026-05-05 19:38 | 59.41320 | 24.82758 | 148 ft | 74 kts | 270° |
| 2026-05-05 19:38 | 59.41322 | 24.81804 | 144 ft | 65 kts | 270° |
| 2026-05-05 19:39 | 59.41326 | 24.81000 | 148 ft | 53 kts | 271° |
| 2026-05-05 19:39 | 59.41373 | 24.80610 | 152 ft | 18 kts | 312° |
| 2026-05-05 19:39 | 59.41463 | 24.80476 | 154 ft | 8 kts | 358° |
| 2026-05-05 19:39 | 59.41467 | 24.80476 | 154 ft | 0 kts | 359° |
| 2026-05-05 19:40 | 59.41510 | 24.80453 | 155 ft | 14 kts | 323° |
| 2026-05-05 19:40 | 59.41530 | 24.80247 | 155 ft | 14 kts | 270° |
| 2026-05-05 19:40 | 59.41534 | 24.80084 | 154 ft | 7 kts | 313° |
| 2026-05-05 19:41 | 59.41571 | 24.80069 | 154 ft | 2 kts | 1° |
| 2026-05-05 19:41 | 59.41577 | 24.80069 | 154 ft | 0 kts | 1° |
| 2026-05-05 19:41 | 59.41582 | 24.80069 | 154 ft | 0 kts | 1° |
| 2026-05-05 19:41 | 59.41584 | 24.80069 | 154 ft | 0 kts | 1° |